Flight Information

DEPARTURE
INDIAN SPRINGS, NV
Elevation:
3134
Runways:
13/31 - 5476x100 - ASPH
8/26 - 9002x150 - ASPH
Ground:
118.3
Tower:
118.3
DESTINATION
,
Elevation:
TPA:
1000 (est.)


6621.4 NM74° True-15° Var59° HDG

Flight Plan:
(click to file on line)

1. Type
2. Aircraft Identification
3. Aircraft Type / Special Equipment
4. True Airspeed
kts
5. Departure Airport
(ICAO code)
6. Arriving Airport
(ICAO code)
7. Cruising Altitude
ft
8. Alternate Airport
(ICAO code)
9. Route of Flight
10. Remarks


00:00:00 Departure ATIS: Destination ATIS:

Clearance Limit:
Route:
Altitude: Expect in minutes
Frequency:
Transponder: (7500 Hijack / 7600 Lost Comms / 7700 Emergency)


KINS 282158Z AUTO 11008KT 10SM CLR 13/M24 A3040 RMK AO2 SLP290 T01281240 $
Time: 2022-01-28T21:58:00Z
1643410516
Winds: 110 @ 8 kts
Visibility: 10.0 sm
Clouds (AGL): CLR
Temperature: 12.8 C
Dew Point: -24.0 C
Pressure: 30.398623 in Hgbr


Notes:

Data extracted from FAA Digital Chart Supplement. Effective: 0901Z Thursday, DEC 2, 2021 to 0901Z Thursday, JAN 27, 2022
Current ATIS data is provided courtisy of PilotEdge.